sensor_id;sensor_type;location;lat;lon;timestamp;pressure;altitude;pressure_sealevel;temperature
26158;BMP280;67284;44.782;10.282;2023-02-15T00:02:39;102459.31;;;7.41
26158;BMP280;67284;44.782;10.282;2023-02-15T00:07:31;102452.41;;;7.38
26158;BMP280;67284;44.782;10.282;2023-02-15T00:12:23;102451.50;;;7.36
26158;BMP280;67284;44.782;10.282;2023-02-15T00:17:15;102453.13;;;7.34
26158;BMP280;67284;44.782;10.282;2023-02-15T00:22:07;102442.81;;;7.31
26158;BMP280;67284;44.782;10.282;2023-02-15T00:26:58;102450.44;;;7.30
26158;BMP280;67284;44.782;10.282;2023-02-15T00:31:50;102452.09;;;7.28
26158;BMP280;67284;44.782;10.282;2023-02-15T00:36:43;102458.00;;;7.25
26158;BMP280;67284;44.782;10.282;2023-02-15T00:41:38;102452.81;;;7.24
26158;BMP280;67284;44.782;10.282;2023-02-15T00:46:30;102449.28;;;7.21
26158;BMP280;67284;44.782;10.282;2023-02-15T00:51:22;102452.69;;;7.20
26158;BMP280;67284;44.782;10.282;2023-02-15T00:56:14;102465.50;;;7.20
26158;BMP280;67284;44.782;10.282;2023-02-15T01:01:11;102468.81;;;7.17
26158;BMP280;67284;44.782;10.282;2023-02-15T01:06:04;102459.34;;;7.15
26158;BMP280;67284;44.782;10.282;2023-02-15T01:10:56;102459.28;;;7.13
26158;BMP280;67284;44.782;10.282;2023-02-15T01:15:57;102443.97;;;7.15
26158;BMP280;67284;44.782;10.282;2023-02-15T01:20:50;102445.72;;;7.16
26158;BMP280;67284;44.782;10.282;2023-02-15T01:25:42;102436.16;;;7.10
26158;BMP280;67284;44.782;10.282;2023-02-15T01:30:34;102443.72;;;7.06
26158;BMP280;67284;44.782;10.282;2023-02-15T01:35:27;102444.47;;;7.03
26158;BMP280;67284;44.782;10.282;2023-02-15T01:40:19;102437.50;;;6.99
26158;BMP280;67284;44.782;10.282;2023-02-15T01:45:32;102434.00;;;6.96
26158;BMP280;67284;44.782;10.282;2023-02-15T01:50:46;102427.94;;;6.94
26158;BMP280;67284;44.782;10.282;2023-02-15T01:55:57;102427.09;;;6.93
26158;BMP280;67284;44.782;10.282;2023-02-15T02:00:50;102429.69;;;6.95
26158;BMP280;67284;44.782;10.282;2023-02-15T02:05:42;102423.84;;;6.99
26158;BMP280;67284;44.782;10.282;2023-02-15T02:10:36;102417.16;;;7.04
26158;BMP280;67284;44.782;10.282;2023-02-15T02:15:39;102407.88;;;7.06
26158;BMP280;67284;44.782;10.282;2023-02-15T02:46:14;102387.38;;;7.06
26158;BMP280;67284;44.782;10.282;2023-02-15T02:51:09;102382.19;;;7.03
26158;BMP280;67284;44.782;10.282;2023-02-15T02:56:35;102389.78;;;7.01
26158;BMP280;67284;44.782;10.282;2023-02-15T03:01:35;102389.00;;;7.04
26158;BMP280;67284;44.782;10.282;2023-02-15T03:06:39;102385.59;;;7.03
26158;BMP280;67284;44.782;10.282;2023-02-15T03:11:32;102384.63;;;7.00
26158;BMP280;67284;44.782;10.282;2023-02-15T03:16:25;102373.34;;;6.93
26158;BMP280;67284;44.782;10.282;2023-02-15T03:21:20;102370.72;;;6.92
26158;BMP280;67284;44.782;10.282;2023-02-15T03:26:13;102376.66;;;6.91
26158;BMP280;67284;44.782;10.282;2023-02-15T03:31:10;102375.00;;;6.93
26158;BMP280;67284;44.782;10.282;2023-02-15T03:36:18;102378.50;;;6.95
26158;BMP280;67284;44.782;10.282;2023-02-15T03:41:12;102373.38;;;6.95
26158;BMP280;67284;44.782;10.282;2023-02-15T03:46:32;102372.63;;;6.97
26158;BMP280;67284;44.782;10.282;2023-02-15T03:51:28;102373.47;;;6.98
26158;BMP280;67284;44.782;10.282;2023-02-15T03:56:30;102380.44;;;7.02
26158;BMP280;67284;44.782;10.282;2023-02-15T04:01:25;102371.09;;;7.04
26158;BMP280;67284;44.782;10.282;2023-02-15T04:06:36;102378.78;;;7.04
26158;BMP280;67284;44.782;10.282;2023-02-15T04:11:28;102382.25;;;7.06
26158;BMP280;67284;44.782;10.282;2023-02-15T04:16:20;102381.31;;;7.04
26158;BMP280;67284;44.782;10.282;2023-02-15T04:21:12;102388.16;;;7.03
26158;BMP280;67284;44.782;10.282;2023-02-15T04:26:22;102384.72;;;7.03
26158;BMP280;67284;44.782;10.282;2023-02-15T04:31:14;102386.34;;;7.01
26158;BMP280;67284;44.782;10.282;2023-02-15T04:36:06;102377.81;;;7.00
26158;BMP280;67284;44.782;10.282;2023-02-15T04:40:58;102379.53;;;7.01
26158;BMP280;67284;44.782;10.282;2023-02-15T04:45:50;102375.25;;;7.00
26158;BMP280;67284;44.782;10.282;2023-02-15T04:50:42;102380.44;;;7.02
26158;BMP280;67284;44.782;10.282;2023-02-15T04:55:34;102376.22;;;7.04
26158;BMP280;67284;44.782;10.282;2023-02-15T05:00:26;102377.91;;;7.03
26158;BMP280;67284;44.782;10.282;2023-02-15T05:05:19;102376.16;;;7.02
26158;BMP280;67284;44.782;10.282;2023-02-15T05:10:11;102368.41;;;6.99
26158;BMP280;67284;44.782;10.282;2023-02-15T05:15:03;102377.78;;;6.99
26158;BMP280;67284;44.782;10.282;2023-02-15T05:19:54;102371.72;;;6.97
26158;BMP280;67284;44.782;10.282;2023-02-15T05:24:46;102368.25;;;6.95
26158;BMP280;67284;44.782;10.282;2023-02-15T05:29:57;102360.53;;;6.93
26158;BMP280;67284;44.782;10.282;2023-02-15T05:34:49;102368.25;;;6.95
26158;BMP280;67284;44.782;10.282;2023-02-15T05:39:40;102366.66;;;6.98
26158;BMP280;67284;44.782;10.282;2023-02-15T05:44:32;102374.28;;;6.97
26158;BMP280;67284;44.782;10.282;2023-02-15T05:49:24;102374.16;;;6.92
26158;BMP280;67284;44.782;10.282;2023-02-15T05:54:17;102366.34;;;6.88
26158;BMP280;67284;44.782;10.282;2023-02-15T05:59:08;102373.22;;;6.89
26158;BMP280;67284;44.782;10.282;2023-02-15T06:04:00;102373.28;;;6.92
26158;BMP280;67284;44.782;10.282;2023-02-15T06:08:52;102372.56;;;6.96
26158;BMP280;67284;44.782;10.282;2023-02-15T06:13:44;102372.72;;;7.00
26158;BMP280;67284;44.782;10.282;2023-02-15T06:18:35;102373.66;;;7.04
26158;BMP280;67284;44.782;10.282;2023-02-15T06:23:27;102373.66;;;7.04
26158;BMP280;67284;44.782;10.282;2023-02-15T06:28:20;102379.66;;;7.04
26158;BMP280;67284;44.782;10.282;2023-02-15T06:33:11;102387.38;;;7.06
26158;BMP280;67284;44.782;10.282;2023-02-15T06:38:03;102398.44;;;7.05
26158;BMP280;67284;44.782;10.282;2023-02-15T06:42:55;102394.91;;;7.01
26158;BMP280;67284;44.782;10.282;2023-02-15T06:47:47;102403.38;;;6.99
26158;BMP280;67284;44.782;10.282;2023-02-15T06:52:39;102396.59;;;7.01
26158;BMP280;67284;44.782;10.282;2023-02-15T06:57:30;102400.94;;;7.03
26158;BMP280;67284;44.782;10.282;2023-02-15T07:02:24;102402.75;;;7.06
26158;BMP280;67284;44.782;10.282;2023-02-15T07:07:15;102402.75;;;7.06
26158;BMP280;67284;44.782;10.282;2023-02-15T07:12:07;102408.75;;;7.08
26158;BMP280;67284;44.782;10.282;2023-02-15T07:17:19;102408.75;;;7.08
26158;BMP280;67284;44.782;10.282;2023-02-15T07:22:26;102411.38;;;7.09
26158;BMP280;67284;44.782;10.282;2023-02-15T07:27:19;102410.50;;;7.09
26158;BMP280;67284;44.782;10.282;2023-02-15T07:32:10;102419.91;;;7.10
26158;BMP280;67284;44.782;10.282;2023-02-15T07:37:04;102420.75;;;7.09
26158;BMP280;67284;44.782;10.282;2023-02-15T07:41:56;102417.47;;;7.13
26158;BMP280;67284;44.782;10.282;2023-02-15T07:46:54;102415.81;;;7.15
26158;BMP280;67284;44.782;10.282;2023-02-15T07:51:46;102415.03;;;7.17
26158;BMP280;67284;44.782;10.282;2023-02-15T07:56:38;102423.53;;;7.16
26158;BMP280;67284;44.782;10.282;2023-02-15T08:01:33;102415.84;;;7.16
26158;BMP280;67284;44.782;10.282;2023-02-15T08:06:29;102415.00;;;7.16
26158;BMP280;67284;44.782;10.282;2023-02-15T08:11:27;102410.66;;;7.13
26158;BMP280;67284;44.782;10.282;2023-02-15T08:21:27;102420.97;;;7.16
26158;BMP280;67284;44.782;10.282;2023-02-15T08:26:23;102419.22;;;7.15
26158;BMP280;67284;44.782;10.282;2023-02-15T08:31:16;102410.78;;;7.18
26158;BMP280;67284;44.782;10.282;2023-02-15T08:36:18;102409.16;;;7.20
26158;BMP280;67284;44.782;10.282;2023-02-15T08:46:13;102429.84;;;7.27
26158;BMP280;67284;44.782;10.282;2023-02-15T08:51:11;102423.97;;;7.29
26158;BMP280;67284;44.782;10.282;2023-02-15T08:56:03;102430.94;;;7.33
26158;BMP280;67284;44.782;10.282;2023-02-15T09:00:55;102425.91;;;7.36
26158;BMP280;67284;44.782;10.282;2023-02-15T09:05:47;102423.41;;;7.39
26158;BMP280;67284;44.782;10.282;2023-02-15T09:10:39;102423.50;;;7.42
26158;BMP280;67284;44.782;10.282;2023-02-15T09:15:31;102422.78;;;7.46
26158;BMP280;67284;44.782;10.282;2023-02-15T09:20:23;102426.25;;;7.48
26158;BMP280;67284;44.782;10.282;2023-02-15T09:25:15;102431.44;;;7.51
26158;BMP280;67284;44.782;10.282;2023-02-15T09:30:07;102420.44;;;7.54
26158;BMP280;67284;44.782;10.282;2023-02-15T09:34:59;102423.84;;;7.54
26158;BMP280;67284;44.782;10.282;2023-02-15T09:39:51;102423.13;;;7.58
26158;BMP280;67284;44.782;10.282;2023-02-15T09:44:58;102424.03;;;7.60
26158;BMP280;67284;44.782;10.282;2023-02-15T09:55:24;102414.00;;;7.68
26158;BMP280;67284;44.782;10.282;2023-02-15T10:00:24;102425.47;;;7.80
26158;BMP280;67284;44.782;10.282;2023-02-15T10:11:17;102409.31;;;7.82
26158;BMP280;67284;44.782;10.282;2023-02-15T10:21:44;102403.22;;;7.79
26158;BMP280;67284;44.782;10.282;2023-02-15T10:26:45;102402.41;;;7.80
26158;BMP280;67284;44.782;10.282;2023-02-15T10:48:24;102376.13;;;7.87
26158;BMP280;67284;44.782;10.282;2023-02-15T11:08:57;102357.31;;;8.19
26158;BMP280;67284;44.782;10.282;2023-02-15T11:13:56;102352.88;;;8.12
26158;BMP280;67284;44.782;10.282;2023-02-15T11:18:53;102345.06;;;8.09
26158;BMP280;67284;44.782;10.282;2023-02-15T11:23:46;102336.56;;;8.10
26158;BMP280;67284;44.782;10.282;2023-02-15T11:28:58;102332.59;;;8.21
26158;BMP280;67284;44.782;10.282;2023-02-15T11:34:00;102321.38;;;8.17
26158;BMP280;67284;44.782;10.282;2023-02-15T11:38:59;102318.91;;;8.20
26158;BMP280;67284;44.782;10.282;2023-02-15T11:44:14;102319.00;;;8.23
26158;BMP280;67284;44.782;10.282;2023-02-15T11:49:34;102307.16;;;8.29
26158;BMP280;67284;44.782;10.282;2023-02-15T11:54:29;102290.03;;;8.27
26158;BMP280;67284;44.782;10.282;2023-02-15T11:59:31;102280.91;;;8.39
26158;BMP280;67284;44.782;10.282;2023-02-15T12:04:36;102270.84;;;8.47
26158;BMP280;67284;44.782;10.282;2023-02-15T12:14:47;102265.94;;;8.57
26158;BMP280;67284;44.782;10.282;2023-02-15T12:19:40;102261.78;;;9.02
26158;BMP280;67284;44.782;10.282;2023-02-15T12:24:44;102256.00;;;9.54
26158;BMP280;67284;44.782;10.282;2023-02-15T12:29:42;102247.88;;;9.33
26158;BMP280;67284;44.782;10.282;2023-02-15T12:34:38;102240.59;;;9.12
26158;BMP280;67284;44.782;10.282;2023-02-15T12:39:32;102241.94;;;8.95
26158;BMP280;67284;44.782;10.282;2023-02-15T12:44:27;102232.47;;;8.92
26158;BMP280;67284;44.782;10.282;2023-02-15T12:49:20;102222.56;;;9.09
26158;BMP280;67284;44.782;10.282;2023-02-15T12:59:14;102219.09;;;9.07
26158;BMP280;67284;44.782;10.282;2023-02-15T13:09:18;102205.13;;;8.93
26158;BMP280;67284;44.782;10.282;2023-02-15T13:14:19;102184.69;;;8.99
26158;BMP280;67284;44.782;10.282;2023-02-15T13:24:10;102175.41;;;9.05
26158;BMP280;67284;44.782;10.282;2023-02-15T13:29:14;102167.38;;;9.34
26158;BMP280;67284;44.782;10.282;2023-02-15T13:34:16;102163.75;;;9.22
26158;BMP280;67284;44.782;10.282;2023-02-15T13:39:18;102169.66;;;9.18
26158;BMP280;67284;44.782;10.282;2023-02-15T13:44:46;102160.03;;;9.07
26158;BMP280;67284;44.782;10.282;2023-02-15T13:59:38;102155.88;;;9.15
26158;BMP280;67284;44.782;10.282;2023-02-15T14:04:41;102145.69;;;9.19
26158;BMP280;67284;44.782;10.282;2023-02-15T14:10:00;102146.34;;;9.08
26158;BMP280;67284;44.782;10.282;2023-02-15T14:20:24;102136.56;;;9.36
26158;BMP280;67284;44.782;10.282;2023-02-15T14:25:24;102139.75;;;9.22
26158;BMP280;67284;44.782;10.282;2023-02-15T14:30:24;102134.28;;;9.04
26158;BMP280;67284;44.782;10.282;2023-02-15T14:35:20;102134.94;;;8.94
26158;BMP280;67284;44.782;10.282;2023-02-15T14:40:31;102123.78;;;8.92
26158;BMP280;67284;44.782;10.282;2023-02-15T14:55:35;102114.00;;;9.19
26158;BMP280;67284;44.782;10.282;2023-02-15T15:00:36;102109.56;;;9.09
26158;BMP280;67284;44.782;10.282;2023-02-15T15:05:34;102107.66;;;8.99
26158;BMP280;67284;44.782;10.282;2023-02-15T15:10:33;102100.16;;;9.11
26158;BMP280;67284;44.782;10.282;2023-02-15T15:35:36;102089.88;;;9.11
26158;BMP280;67284;44.782;10.282;2023-02-15T15:41:00;102099.97;;;8.99
26158;BMP280;67284;44.782;10.282;2023-02-15T15:46:28;102094.72;;;8.93
26158;BMP280;67284;44.782;10.282;2023-02-15T15:51:33;102099.69;;;9.31
26158;BMP280;67284;44.782;10.282;2023-02-15T15:56:28;102097.00;;;9.24
26158;BMP280;67284;44.782;10.282;2023-02-15T16:01:27;102100.25;;;9.14
26158;BMP280;67284;44.782;10.282;2023-02-15T16:11:25;102093.97;;;8.98
26158;BMP280;67284;44.782;10.282;2023-02-15T16:16:26;102093.91;;;8.97
26158;BMP280;67284;44.782;10.282;2023-02-15T16:21:23;102099.81;;;8.91
26158;BMP280;67284;44.782;10.282;2023-02-15T16:31:31;102089.41;;;8.85
26158;BMP280;67284;44.782;10.282;2023-02-15T16:36:27;102091.94;;;8.82
26158;BMP280;67284;44.782;10.282;2023-02-15T16:41:27;102097.88;;;8.80
26158;BMP280;67284;44.782;10.282;2023-02-15T16:46:38;102103.88;;;8.79
26158;BMP280;67284;44.782;10.282;2023-02-15T16:51:33;102105.50;;;8.77
26158;BMP280;67284;44.782;10.282;2023-02-15T16:56:28;102113.19;;;8.76
26158;BMP280;67284;44.782;10.282;2023-02-15T17:01:25;102110.59;;;8.74
26158;BMP280;67284;44.782;10.282;2023-02-15T17:06:25;102123.44;;;8.74
26158;BMP280;67284;44.782;10.282;2023-02-15T17:11:20;102126.00;;;8.74
26158;BMP280;67284;44.782;10.282;2023-02-15T17:16:30;102131.94;;;8.73
26158;BMP280;67284;44.782;10.282;2023-02-15T17:21:27;102141.34;;;8.71
26158;BMP280;67284;44.782;10.282;2023-02-15T17:26:22;102133.63;;;8.71
26158;BMP280;67284;44.782;10.282;2023-02-15T17:31:16;102135.31;;;8.69
26158;BMP280;67284;44.782;10.282;2023-02-15T17:36:29;102130.22;;;8.71
26158;BMP280;67284;44.782;10.282;2023-02-15T17:41:21;102135.38;;;8.72
26158;BMP280;67284;44.782;10.282;2023-02-15T17:46:12;102139.78;;;8.78
26158;BMP280;67284;44.782;10.282;2023-02-15T17:51:06;102144.06;;;8.80
26158;BMP280;67284;44.782;10.282;2023-02-15T17:55:59;102150.94;;;8.81
26158;BMP280;67284;44.782;10.282;2023-02-15T18:01:04;102154.38;;;8.81
26158;BMP280;67284;44.782;10.282;2023-02-15T18:06:16;102162.06;;;8.81
26158;BMP280;67284;44.782;10.282;2023-02-15T18:11:27;102162.91;;;8.79
26158;BMP280;67284;44.782;10.282;2023-02-15T18:16:25;102166.25;;;8.77
26158;BMP280;67284;44.782;10.282;2023-02-15T18:21:18;102168.78;;;8.74
26158;BMP280;67284;44.782;10.282;2023-02-15T18:26:20;102178.09;;;8.70
26158;BMP280;67284;44.782;10.282;2023-02-15T18:31:13;102171.19;;;8.66
26158;BMP280;67284;44.782;10.282;2023-02-15T18:36:07;102172.78;;;8.61
26158;BMP280;67284;44.782;10.282;2023-02-15T18:41:02;102177.84;;;8.58
26158;BMP280;67284;44.782;10.282;2023-02-15T18:45:55;102187.19;;;8.55
26158;BMP280;67284;44.782;10.282;2023-02-15T18:50:47;102180.19;;;8.48
26158;BMP280;67284;44.782;10.282;2023-02-15T18:55:39;102180.91;;;8.42
26158;BMP280;67284;44.782;10.282;2023-02-15T19:00:33;102177.47;;;8.40
26158;BMP280;67284;44.782;10.282;2023-02-15T19:05:26;102178.28;;;8.39
26158;BMP280;67284;44.782;10.282;2023-02-15T19:10:23;102173.22;;;8.42
26158;BMP280;67284;44.782;10.282;2023-02-15T19:15:18;102182.69;;;8.45
26158;BMP280;67284;44.782;10.282;2023-02-15T19:20:32;102186.19;;;8.48
26158;BMP280;67284;44.782;10.282;2023-02-15T19:25:26;102187.91;;;8.49
26158;BMP280;67284;44.782;10.282;2023-02-15T19:30:25;102194.78;;;8.50
26158;BMP280;67284;44.782;10.282;2023-02-15T19:35:22;102201.59;;;8.48
26158;BMP280;67284;44.782;10.282;2023-02-15T19:40:22;102198.09;;;8.46
26158;BMP280;67284;44.782;10.282;2023-02-15T19:45:20;102187.84;;;8.46
26158;BMP280;67284;44.782;10.282;2023-02-15T19:50:16;102194.75;;;8.49
26158;BMP280;67284;44.782;10.282;2023-02-15T20:00:19;102192.25;;;8.52
26158;BMP280;67284;44.782;10.282;2023-02-15T20:05:13;102199.91;;;8.50
26158;BMP280;67284;44.782;10.282;2023-02-15T20:10:13;102194.78;;;8.50
26158;BMP280;67284;44.782;10.282;2023-02-15T20:15:27;102194.78;;;8.50
26158;BMP280;67284;44.782;10.282;2023-02-15T20:20:20;102196.47;;;8.48
26158;BMP280;67284;44.782;10.282;2023-02-15T20:25:18;102202.47;;;8.50
26158;BMP280;67284;44.782;10.282;2023-02-15T20:30:18;102193.03;;;8.49
26158;BMP280;67284;44.782;10.282;2023-02-15T20:35:18;102192.97;;;8.46
26158;BMP280;67284;44.782;10.282;2023-02-15T20:40:16;102194.72;;;8.47
26158;BMP280;67284;44.782;10.282;2023-02-15T20:45:16;102187.78;;;8.43
26158;BMP280;67284;44.782;10.282;2023-02-15T20:50:08;102193.72;;;8.42
26158;BMP280;67284;44.782;10.282;2023-02-15T20:55:00;102192.03;;;8.41
26158;BMP280;67284;44.782;10.282;2023-02-15T20:59:52;102200.44;;;8.36
26158;BMP280;67284;44.782;10.282;2023-02-15T21:04:44;102198.69;;;8.33
26158;BMP280;67284;44.782;10.282;2023-02-15T21:09:36;102200.41;;;8.34
26158;BMP280;67284;44.782;10.282;2023-02-15T21:14:28;102210.69;;;8.34
26158;BMP280;67284;44.782;10.282;2023-02-15T21:19:21;102206.34;;;8.32
26158;BMP280;67284;44.782;10.282;2023-02-15T21:24:32;102203.69;;;8.28
26158;BMP280;67284;44.782;10.282;2023-02-15T21:29:26;102204.44;;;8.24
26158;BMP280;67284;44.782;10.282;2023-02-15T21:34:19;102219.75;;;8.21
26158;BMP280;67284;44.782;10.282;2023-02-15T21:39:17;102222.28;;;8.19
26158;BMP280;67284;44.782;10.282;2023-02-15T21:44:17;102214.63;;;8.21
26158;BMP280;67284;44.782;10.282;2023-02-15T21:49:28;102219.75;;;8.21
26158;BMP280;67284;44.782;10.282;2023-02-15T21:54:20;102224.06;;;8.22
26158;BMP280;67284;44.782;10.282;2023-02-15T21:59:14;102213.81;;;8.22
26158;BMP280;67284;44.782;10.282;2023-02-15T22:04:12;102226.53;;;8.19
26158;BMP280;67284;44.782;10.282;2023-02-15T22:09:14;102219.63;;;8.15
26158;BMP280;67284;44.782;10.282;2023-02-15T22:19:22;102214.28;;;8.09
26158;BMP280;67284;44.782;10.282;2023-02-15T22:24:14;102212.59;;;8.08
26158;BMP280;67284;44.782;10.282;2023-02-15T22:29:12;102221.09;;;8.07
26158;BMP280;67284;44.782;10.282;2023-02-15T22:34:04;102219.38;;;8.07
26158;BMP280;67284;44.782;10.282;2023-02-15T22:38:56;102232.13;;;8.04
26158;BMP280;67284;44.782;10.282;2023-02-15T22:43:48;102227.75;;;8.00
26158;BMP280;67284;44.782;10.282;2023-02-15T22:48:42;102230.25;;;7.97
26158;BMP280;67284;44.782;10.282;2023-02-15T22:53:34;102228.41;;;7.92
26158;BMP280;67284;44.782;10.282;2023-02-15T22:58:27;102236.84;;;7.88
26158;BMP280;67284;44.782;10.282;2023-02-15T23:03:22;102235.94;;;7.86
26158;BMP280;67284;44.782;10.282;2023-02-15T23:08:14;102239.34;;;7.85
26158;BMP280;67284;44.782;10.282;2023-02-15T23:13:30;102241.91;;;7.85
26158;BMP280;67284;44.782;10.282;2023-02-15T23:18:26;102240.22;;;7.85
26158;BMP280;67284;44.782;10.282;2023-02-15T23:23:25;102237.63;;;7.84
26158;BMP280;67284;44.782;10.282;2023-02-15T23:33:22;102245.94;;;7.76
26158;BMP280;67284;44.782;10.282;2023-02-15T23:38:21;102249.38;;;7.76
26158;BMP280;67284;44.782;10.282;2023-02-15T23:43:20;102249.34;;;7.75
26158;BMP280;67284;44.782;10.282;2023-02-15T23:48:24;102247.53;;;7.72
26158;BMP280;67284;44.782;10.282;2023-02-15T23:53:20;102245.81;;;7.71
26158;BMP280;67284;44.782;10.282;2023-02-15T23:58:15;102238.97;;;7.70
